MHD weather

Mashhad International Airport
Mashhad, Razavi Khorasan Province, Iran

Public forecast

Using degrees Celsius for public forecast. Weather courtesy of forecast.io.

METAR (pilot weather report)

Retrieved 2019/05/21 07:30 UTC (27 minutes ago):

OIMM 210730Z 11008KT 9999 FEW030TCU SCT200 30/06 Q1015 A3000

TAF (pilot weather forecast)

Retrieved 2019/05/21 06:09 UTC (2 hours ago):

TAF OIMM 210550Z 2106/2212 08010KT 7000 SCT040 SCT100 BECMG 2108/2110 FEW035CB SCT040 BKN100 TEMPO 2110/2118 12020KT 5000 TS/SHRA SCT030CB SCT035 OVC090 BECMG 2121/2123 4000 BR BECMG 2204/2206 6000 TEMPO 2206/2212 12010KT 4000 TS/SHRA SCT030CB SCT035 OVC080